Time;durP1;ratioP1;P1;durP2;ratioP2;P2;SDS_P1;SDS_P2;PMS_P1;PMS_P2;Temp;Humidity;BMP_temperature;BMP_pressure;BME280_temperature;BME280_humidity;BME280_pressure;Samples;Min_cycle;Max_cycle;Signal;HPM_P1;HPM_P2
2023/07/14 00:00:23;;;;;;;5.47;2.80;;;;;;;16.61;100.00;101631.53;5034019;28;20032;-55
2023/07/14 00:02:50;;;;;;;6.75;2.78;;;;;;;16.55;100.00;101605.25;5051601;28;20408;-54
2023/07/14 00:05:21;;;;;;;5.18;2.88;;;;;;;16.49;100.00;101600.16;5051205;28;20154;-57
2023/07/14 00:07:48;;;;;;;6.57;2.70;;;;;;;16.13;100.00;101543.38;5034008;28;20033;-58
2023/07/14 00:10:22;;;;;;;8.52;3.47;;;;;;;16.13;100.00;101549.56;5053795;28;20120;-58
2023/07/14 00:12:48;;;;;;;5.88;2.88;;;;;;;16.16;100.00;101545.88;5055388;28;20107;-54
2023/07/14 00:15:14;;;;;;;8.40;3.20;;;;;;;16.12;100.00;101538.97;5055255;28;20385;-57
2023/07/14 00:17:40;;;;;;;5.65;2.72;;;;;;;16.38;100.00;101593.59;5055203;28;20140;-57
2023/07/14 00:20:29;;;;;;;7.65;3.33;;;;;;;16.51;100.00;101613.41;5055114;28;20168;-58
2023/07/14 00:22:55;;;;;;;6.93;3.38;;;;;;;16.42;100.00;101597.88;5037156;28;20059;-55
2023/07/14 00:25:22;;;;;;;8.40;2.72;;;;;;;16.42;100.00;101592.53;5037223;28;20041;-56
2023/07/14 00:27:49;;;;;;;6.30;2.78;;;;;;;16.06;100.00;101534.78;5055125;28;20124;-56
2023/07/14 00:30:16;;;;;;;5.63;2.70;;;;;;;16.48;100.00;101608.22;5037159;28;20072;-57
2023/07/14 00:32:42;;;;;;;8.68;3.20;;;;;;;16.40;100.00;101583.78;5054888;28;20090;-57
2023/07/14 00:35:28;;;;;;;5.38;2.70;;;;;;;16.44;100.00;101598.66;5055070;28;20539;-57
2023/07/14 00:37:57;;;;;;;5.63;2.80;;;;;;;16.31;100.00;101588.56;5037179;28;20104;-57
2023/07/14 00:40:29;;;;;;;7.72;2.80;;;;;;;16.43;100.00;101604.91;5053725;28;20055;-52
2023/07/14 00:42:57;;;;;;;6.90;2.58;;;;;;;16.42;100.00;101601.38;5036609;28;20044;-56
2023/07/14 00:45:25;;;;;;;5.28;2.58;;;;;;;16.01;100.00;101522.66;5054696;28;20116;-55
2023/07/14 00:47:57;;;;;;;4.85;2.50;;;;;;;16.07;100.00;101527.69;5054151;28;20542;-55
2023/07/14 00:50:44;;;;;;;7.10;3.13;;;;;;;16.47;100.00;101614.47;5037203;28;20512;-55
2023/07/14 00:53:15;;;;;;;6.60;2.53;;;;;;;16.30;100.00;101580.66;5036775;28;20056;-57
2023/07/14 00:55:43;;;;;;;5.68;2.78;;;;;;;16.37;100.00;101587.44;5036713;28;20491;-55
2023/07/14 00:58:18;;;;;;;5.40;2.58;;;;;;;16.03;100.00;101534.94;5033268;28;20154;-57
2023/07/14 01:01:22;;;;;;;5.57;2.75;;;;;;;16.34;100.00;101584.94;5040980;28;20029;-58
2023/07/14 01:03:50;;;;;;;7.95;3.00;;;;;;;16.19;100.00;101559.91;5011927;28;20037;-55
2023/07/14 01:06:30;;;;;;;3.92;2.22;;;;;;;16.18;100.00;101565.28;5002410;28;20045;-56
2023/07/14 01:09:08;;;;;;;7.93;3.15;;;;;;;16.25;100.00;101594.16;5034504;28;20392;-55
2023/07/14 01:11:42;;;;;;;5.65;2.70;;;;;;;15.70;100.00;101499.25;5034280;28;20041;-56
2023/07/14 01:14:17;;;;;;;3.22;2.50;;;;;;;16.10;100.00;101581.56;5016445;28;20476;-55
2023/07/14 01:16:43;;;;;;;4.43;2.83;;;;;;;16.10;100.00;101570.94;5039748;28;20049;-56
2023/07/14 01:19:16;;;;;;;3.97;2.65;;;;;;;15.62;100.00;101504.00;5054120;28;20511;-54
2023/07/14 01:21:43;;;;;;;4.82;2.88;;;;;;;15.96;100.00;101560.03;5038111;28;20523;-54
2023/07/14 01:24:15;;;;;;;6.85;2.72;;;;;;;15.54;100.00;101495.50;5016079;28;20029;-56
2023/07/14 01:26:44;;;;;;;6.43;3.05;;;;;;;16.00;100.00;101580.22;5033490;28;20084;-59
2023/07/14 01:29:09;;;;;;;7.05;2.90;;;;;;;15.95;100.00;101568.06;5053751;28;20384;-54
2023/07/14 01:31:35;;;;;;;7.32;3.10;;;;;;;15.52;100.00;101489.41;5053662;28;20123;-57
2023/07/14 01:34:02;;;;;;;8.25;3.00;;;;;;;15.91;100.00;101563.78;5035659;28;20483;-57
2023/07/14 01:36:27;;;;;;;7.18;2.60;;;;;;;15.91;100.00;101569.97;5035856;28;20044;-55
2023/07/14 01:38:53;;;;;;;5.88;2.90;;;;;;;15.88;100.00;101564.78;5053826;28;20033;-57
2023/07/14 01:41:19;;;;;;;6.97;2.80;;;;;;;15.38;100.00;101471.38;5053638;28;20072;-58
2023/07/14 01:43:44;;;;;;;7.20;3.40;;;;;;;15.71;100.00;101532.81;5035962;28;20036;-56
2023/07/14 01:46:16;;;;;;;9.55;3.17;;;;;;;15.81;100.00;101559.81;5035869;28;20075;-57
2023/07/14 01:48:51;;;;;;;4.75;2.47;;;;;;;15.85;100.00;101562.28;5053490;28;20061;-59
2023/07/14 01:51:16;;;;;;;5.90;2.90;;;;;;;15.77;100.00;101537.84;5053421;28;20033;-57
2023/07/14 01:53:49;;;;;;;7.13;3.20;;;;;;;15.80;100.00;101566.06;5018933;28;20487;-57
2023/07/14 01:56:16;;;;;;;5.97;2.70;;;;;;;15.77;100.00;101557.31;5035746;28;20045;-53
2023/07/14 01:58:56;;;;;;;5.78;2.80;;;;;;;15.55;100.00;101514.03;5035419;28;20543;-57
2023/07/14 02:01:23;;;;;;;5.53;3.03;;;;;;;15.27;100.00;101481.56;5053372;28;20465;-55
2023/07/14 02:03:50;;;;;;;6.82;3.15;;;;;;;15.73;100.00;101560.16;5035488;28;20275;-57
2023/07/14 02:06:16;;;;;;;7.03;3.22;;;;;;;15.68;100.00;101564.78;5035331;28;20032;-55
2023/07/14 02:08:44;;;;;;;8.73;3.20;;;;;;;15.42;100.00;101507.47;5035467;28;20079;-56
2023/07/14 02:11:15;;;;;;;7.68;3.50;;;;;;;15.69;100.00;101545.28;5019327;28;20132;-56
2023/07/14 02:13:40;;;;;;;6.55;3.28;;;;;;;15.71;100.00;101556.69;5035173;28;20039;-56
2023/07/14 02:16:09;;;;;;;6.75;3.47;;;;;;;15.64;100.00;101537.50;5035248;28;20037;-54
2023/07/14 02:18:36;;;;;;;8.45;3.33;;;;;;;15.69;100.00;101546.16;5034847;28;20055;-58
2023/07/14 02:21:01;;;;;;;8.00;3.13;;;;;;;15.66;100.00;101548.94;5034737;28;20029;-57
2023/07/14 02:23:27;;;;;;;5.80;2.83;;;;;;;15.45;100.00;101514.44;5052814;28;20036;-57
2023/07/14 02:26:08;;;;;;;4.13;2.72;;;;;;;15.21;100.00;101469.44;5034802;28;20120;-55
2023/07/14 02:28:33;;;;;;;5.32;2.85;;;;;;;15.38;100.00;101507.66;5052727;28;20028;-54
2023/07/14 02:31:11;;;;;;;10.23;3.33;;;;;;;15.55;100.00;101540.56;5052667;28;20083;-56
2023/07/14 02:33:37;;;;;;;5.05;3.22;;;;;;;15.49;100.00;101524.91;5034160;28;20526;-58
2023/07/14 02:36:30;;;;;;;7.68;3.70;;;;;;;15.46;100.00;101524.13;5034758;28;20025;-54
2023/07/14 02:38:55;;;;;;;7.28;3.85;;;;;;;15.44;100.00;101524.16;5026482;28;20044;-56
2023/07/14 02:41:28;;;;;;;5.93;3.03;;;;;;;15.40;100.00;101530.56;5052698;28;20440;-57
2023/07/14 02:43:58;;;;;;;8.88;3.40;;;;;;;14.95;100.00;101458.16;5052339;28;20029;-53
2023/07/14 02:46:33;;;;;;;5.60;3.10;;;;;;;15.11;100.00;101480.50;5052353;28;20498;-58
2023/07/14 02:48:58;;;;;;;6.05;3.38;;;;;;;15.27;100.00;101516.06;5034411;28;20041;-57
2023/07/14 02:51:23;;;;;;;6.45;3.58;;;;;;;15.34;100.00;101532.59;5051228;28;20061;-56
2023/07/14 02:53:49;;;;;;;7.10;2.88;;;;;;;14.98;100.00;101473.94;5052442;28;20033;-55
2023/07/14 02:56:14;;;;;;;7.82;3.45;;;;;;;15.34;100.00;101540.53;5034195;28;20098;-59
2023/07/14 02:58:40;;;;;;;7.38;3.05;;;;;;;15.29;100.00;101537.22;5034393;28;20128;-55
2023/07/14 03:01:05;;;;;;;6.68;3.35;;;;;;;15.31;100.00;101530.06;5052415;28;20041;-56
2023/07/14 03:03:32;;;;;;;8.57;3.35;;;;;;;14.94;100.00;101472.38;5052303;28;20044;-57
2023/07/14 03:05:58;;;;;;;5.78;3.35;;;;;;;14.95;100.00;101482.88;5052399;28;20481;-54
2023/07/14 03:08:23;;;;;;;5.88;2.67;;;;;;;15.26;100.00;101542.66;5052162;28;20036;-55
2023/07/14 03:10:55;;;;;;;5.88;3.00;;;;;;;15.01;100.00;101495.91;5052127;28;20033;-58
2023/07/14 03:13:21;;;;;;;6.35;3.50;;;;;;;15.22;100.00;101533.94;5052344;28;20388;-54
2023/07/14 03:15:46;;;;;;;5.60;3.25;;;;;;;15.19;100.00;101523.47;5052274;28;20029;-56
2023/07/14 03:18:14;;;;;;;7.88;3.50;;;;;;;15.02;100.00;101495.00;5052150;28;20053;-52
2023/07/14 03:20:39;;;;;;;7.60;3.63;;;;;;;15.23;100.00;101530.38;5052212;28;20125;-58
2023/07/14 03:23:05;;;;;;;7.78;3.42;;;;;;;15.21;100.00;101524.25;5051780;28;21186;-57
2023/07/14 03:25:30;;;;;;;8.23;3.42;;;;;;;15.19;100.00;101519.03;5051744;28;20453;-59
2023/07/14 03:27:55;;;;;;;8.45;3.50;;;;;;;14.79;100.00;101442.03;5051896;28;20041;-57
2023/07/14 03:30:21;;;;;;;5.90;3.15;;;;;;;15.06;100.00;101493.91;5052236;28;20499;-57
2023/07/14 03:32:46;;;;;;;9.20;3.60;;;;;;;15.08;100.00;101509.78;5051868;28;20060;-57
2023/07/14 03:35:11;;;;;;;7.07;3.55;;;;;;;15.15;100.00;101505.94;5052018;28;20034;-56
2023/07/14 03:37:37;;;;;;;8.13;3.58;;;;;;;14.94;100.00;101480.31;5051738;28;20449;-55
2023/07/14 03:40:05;;;;;;;7.50;4.20;;;;;;;15.05;100.00;101515.22;5051716;28;20125;-55
2023/07/14 03:42:30;;;;;;;8.73;3.95;;;;;;;14.85;100.00;101485.97;5052027;28;20037;-57
2023/07/14 03:44:56;;;;;;;7.32;3.28;;;;;;;14.72;100.00;101471.47;5055161;28;20028;-55
2023/07/14 03:47:21;;;;;;;7.13;3.78;;;;;;;14.71;100.00;101469.75;5055900;28;20025;-54
2023/07/14 03:49:46;;;;;;;6.97;4.18;;;;;;;14.35;100.00;101421.72;5037914;28;20040;-57
2023/07/14 03:52:13;;;;;;;8.93;4.03;;;;;;;14.74;100.00;101485.53;5055675;28;20037;-57
2023/07/14 03:54:38;;;;;;;12.65;4.30;;;;;;;14.83;100.00;101504.56;5055227;28;20037;-57
2023/07/14 03:57:05;;;;;;;10.82;4.38;;;;;;;14.42;100.00;101425.84;5037982;28;20078;-56
2023/07/14 03:59:30;;;;;;;4.15;3.25;;;;;;;14.44;100.00;101424.88;5055437;28;20532;-54
2023/07/14 04:01:56;;;;;;;5.35;3.55;;;;;;;14.37;100.00;101407.50;5055564;28;20112;-56
2023/07/14 04:04:22;;;;;;;11.10;3.92;;;;;;;14.82;100.00;101488.75;5037635;28;20061;-54
2023/07/14 04:06:47;;;;;;;8.43;3.65;;;;;;;14.74;100.00;101467.00;5055289;28;20460;-57
2023/07/14 04:09:13;;;;;;;10.60;4.05;;;;;;;14.35;100.00;101405.84;5037444;28;20087;-57
2023/07/14 04:11:38;;;;;;;6.82;3.83;;;;;;;14.46;100.00;101428.31;5055555;28;20071;-54
2023/07/14 04:14:05;;;;;;;6.60;3.38;;;;;;;14.67;100.00;101454.91;5055358;28;20037;-54
2023/07/14 04:16:30;;;;;;;9.70;3.70;;;;;;;14.97;100.00;101482.84;5037235;28;20647;-58
2023/07/14 04:18:56;;;;;;;12.07;4.03;;;;;;;14.99;100.00;101491.59;5037437;28;20057;-55
2023/07/14 04:21:24;;;;;;;6.88;3.63;;;;;;;15.02;100.00;101500.28;5055113;28;20033;-55
2023/07/14 04:23:50;;;;;;;9.05;4.07;;;;;;;15.01;100.00;101490.59;5055027;28;20128;-59
2023/07/14 04:26:15;;;;;;;9.27;4.97;;;;;;;15.08;100.00;101502.69;5054927;28;20158;-56
2023/07/14 04:28:41;;;;;;;6.28;3.85;;;;;;;14.89;100.00;101445.16;5055289;28;20048;-57
2023/07/14 04:31:06;;;;;;;11.48;4.22;;;;;;;14.86;100.00;101418.78;5054964;28;20045;-55
2023/07/14 04:33:32;;;;;;;10.98;4.30;;;;;;;15.38;100.00;101486.44;5036870;28;20025;-54
2023/07/14 04:35:58;;;;;;;8.50;4.25;;;;;;;15.44;100.00;101487.03;5037154;28;20090;-56
2023/07/14 04:38:24;;;;;;;9.68;4.65;;;;;;;15.53;100.00;101491.13;5020786;28;20032;-57
2023/07/14 04:40:50;;;;;;;9.45;4.07;;;;;;;15.23;100.00;101428.72;5055023;28;20489;-57
2023/07/14 04:43:16;;;;;;;8.27;4.45;;;;;;;15.17;100.00;101419.25;5054825;28;20098;-54
2023/07/14 04:45:43;;;;;;;10.10;4.70;;;;;;;15.17;100.00;101422.78;5036936;28;20037;-54
2023/07/14 04:48:11;;;;;;;9.00;4.63;;;;;;;15.44;100.00;101465.81;5054639;28;20037;-55
2023/07/14 04:50:37;;;;;;;11.25;5.38;;;;;;;15.57;100.00;101477.66;5054637;28;20125;-56
2023/07/14 04:53:06;;;;;;;10.13;5.10;;;;;;;15.61;100.00;101481.06;5054577;28;20436;-55
2023/07/14 04:55:38;;;;;;;14.77;5.40;;;;;;;15.67;100.00;101478.97;5053989;28;20036;-53
2023/07/14 04:58:04;;;;;;;11.43;5.07;;;;;;;15.71;100.00;101467.31;5036749;28;20055;-52
2023/07/14 05:00:30;;;;;;;11.40;5.57;;;;;;;15.47;100.00;101406.50;5054814;28;20461;-57
2023/07/14 05:02:56;;;;;;;10.55;6.03;;;;;;;16.02;100.00;101489.88;5054239;28;20055;-57
2023/07/14 05:05:23;;;;;;;11.98;6.25;;;;;;;15.92;100.00;101441.63;5036395;28;20477;-56
2023/07/14 05:07:49;;;;;;;9.63;6.20;;;;;;;15.79;100.00;101415.69;5054197;28;20033;-56
2023/07/14 05:10:15;;;;;;;10.70;6.53;;;;;;;15.93;100.00;101458.41;5036595;28;20043;-57
2023/07/14 05:12:41;;;;;;;11.63;6.07;;;;;;;16.04;100.00;101480.91;5036189;28;20033;-58
2023/07/14 05:15:10;;;;;;;14.35;7.00;;;;;;;16.04;100.00;101486.22;5054149;28;20033;-54
2023/07/14 05:17:36;;;;;;;11.80;6.32;;;;;;;16.02;100.00;101471.28;5036331;28;20453;-58
2023/07/14 05:20:02;;;;;;;9.20;6.18;;;;;;;16.06;100.00;101468.41;5053891;28;20120;-57
2023/07/14 05:22:28;;;;;;;11.57;6.30;;;;;;;16.03;100.00;101457.91;5053878;28;20126;-55
2023/07/14 05:24:53;;;;;;;10.32;6.90;;;;;;;16.13;100.00;101466.34;5053952;28;20033;-53
2023/07/14 05:27:20;;;;;;;12.93;6.50;;;;;;;15.89;100.00;101403.72;5054079;28;20040;-56
2023/07/14 05:29:46;;;;;;;11.00;6.53;;;;;;;15.92;100.00;101396.47;5054032;28;20045;-55
2023/07/14 05:32:12;;;;;;;15.07;7.15;;;;;;;16.32;100.00;101445.97;5053592;28;20029;-54
2023/07/14 05:34:37;;;;;;;14.60;7.07;;;;;;;16.53;100.00;101460.91;5053806;28;20527;-56
2023/07/14 05:37:03;;;;;;;12.02;7.18;;;;;;;16.56;100.00;101444.84;5053740;28;20033;-57
2023/07/14 05:39:29;;;;;;;13.13;7.57;;;;;;;16.73;100.00;101457.31;5053783;28;20097;-55
2023/07/14 05:41:58;;;;;;;12.15;6.80;;;;;;;16.88;100.00;101472.56;5053627;28;20041;-56
2023/07/14 05:44:24;;;;;;;12.98;7.03;;;;;;;16.98;100.00;101455.22;5053584;28;20036;-57
2023/07/14 05:46:49;;;;;;;12.70;7.03;;;;;;;17.18;100.00;101467.53;5035800;28;20032;-58
2023/07/14 05:49:15;;;;;;;14.13;7.22;;;;;;;17.26;100.00;101474.19;5053455;28;20039;-54
2023/07/14 05:51:40;;;;;;;13.05;6.78;;;;;;;17.31;100.00;101473.94;5035569;28;20082;-58
2023/07/14 05:54:05;;;;;;;12.32;6.65;;;;;;;17.34;100.00;101472.00;5035672;28;20076;-58
2023/07/14 05:56:30;;;;;;;14.27;7.95;;;;;;;17.32;100.00;101449.94;5053371;28;20037;-57
2023/07/14 05:58:56;;;;;;;13.68;7.00;;;;;;;17.47;100.00;101460.75;5053157;28;20036;-57
2023/07/14 06:01:21;;;;;;;12.95;7.88;;;;;;;17.61;100.00;101460.91;5053420;28;20087;-57
2023/07/14 06:03:46;;;;;;;12.43;7.32;;;;;;;17.67;100.00;101480.09;5035206;28;20041;-58
2023/07/14 06:06:12;;;;;;;12.43;6.88;;;;;;;17.38;100.00;101401.72;5035381;28;20032;-56
2023/07/14 06:08:38;;;;;;;10.68;7.88;;;;;;;17.97;100.00;101467.00;5053273;28;20067;-58
2023/07/14 06:11:05;;;;;;;13.10;8.00;;;;;;;18.04;100.00;101460.38;5053068;28;20503;-55
2023/07/14 06:13:30;;;;;;;15.48;7.40;;;;;;;17.95;100.00;101445.75;5053035;28;20040;-55
2023/07/14 06:15:56;;;;;;;11.15;6.68;;;;;;;17.72;100.00;101414.16;5052828;28;20037;-59
2023/07/14 06:18:21;;;;;;;14.50;7.68;;;;;;;18.03;100.00;101476.47;5052731;28;20091;-58
2023/07/14 06:20:47;;;;;;;13.75;7.45;;;;;;;18.11;100.00;101468.91;5035389;28;20037;-57
2023/07/14 06:23:12;;;;;;;11.82;7.22;;;;;;;17.79;100.00;101396.06;5034947;28;20041;-54
2023/07/14 06:25:37;;;;;;;14.40;8.10;;;;;;;18.16;100.00;101440.22;5052973;28;20511;-55
2023/07/14 06:28:03;;;;;;;14.73;7.85;;;;;;;18.49;100.00;101463.28;5034974;28;20033;-57
2023/07/14 06:30:28;;;;;;;17.50;8.20;;;;;;;18.45;100.00;101440.34;5052530;28;20120;-56
2023/07/14 06:32:54;;;;;;;17.88;7.90;;;;;;;18.73;100.00;101462.84;5052373;28;20033;-58
2023/07/14 06:35:19;;;;;;;15.20;7.25;;;;;;;18.85;100.00;101457.69;5035057;28;20479;-60
2023/07/14 06:37:45;;;;;;;15.27;7.60;;;;;;;19.05;100.00;101464.53;5052766;28;20048;-58
2023/07/14 06:40:10;;;;;;;15.35;7.82;;;;;;;19.26;100.00;101455.31;5052492;28;20041;-58
2023/07/14 06:42:36;;;;;;;11.43;7.43;;;;;;;19.27;100.00;101459.66;5034742;28;20036;-58
2023/07/14 06:45:03;;;;;;;11.45;7.65;;;;;;;18.58;100.00;101363.25;5052453;28;20033;-57
2023/07/14 06:47:29;;;;;;;13.23;6.93;;;;;;;18.88;100.00;101421.97;5052131;28;20040;-59
2023/07/14 06:49:55;;;;;;;17.17;8.18;;;;;;;19.00;100.00;101464.78;5051227;28;20082;-58
2023/07/14 06:52:21;;;;;;;20.13;8.10;;;;;;;19.01;100.00;101463.00;5052606;28;20044;-57
2023/07/14 06:54:46;;;;;;;12.85;7.90;;;;;;;18.57;100.00;101405.97;5034835;28;20041;-56
2023/07/14 06:57:12;;;;;;;16.50;8.25;;;;;;;18.08;100.00;101336.75;5052480;28;20525;-56
2023/07/14 06:59:37;;;;;;;15.15;8.15;;;;;;;18.71;100.00;101456.75;5052202;28;20052;-57
2023/07/14 07:02:03;;;;;;;15.15;8.77;;;;;;;18.36;100.00;101392.88;5051945;28;20185;-56
2023/07/14 07:04:28;;;;;;;13.93;8.10;;;;;;;18.77;100.00;101461.72;5052408;28;20032;-58
2023/07/14 07:06:54;;;;;;;11.77;7.55;;;;;;;18.52;100.00;101379.59;5052206;28;20128;-58
2023/07/14 07:09:19;;;;;;;13.48;7.18;;;;;;;19.28;100.00;101456.06;5052230;28;20064;-59
2023/07/14 07:11:45;;;;;;;12.48;7.78;;;;;;;19.58;100.00;101448.09;5034442;28;20033;-57
2023/07/14 07:14:10;;;;;;;15.70;8.85;;;;;;;19.67;100.00;101429.66;5052200;28;20217;-55
2023/07/14 07:16:36;;;;;;;16.95;9.40;;;;;;;19.65;100.00;101447.59;5051729;28;20060;-56
2023/07/14 07:19:02;;;;;;;14.32;8.73;;;;;;;19.67;100.00;101451.03;5055870;28;20116;-58
2023/07/14 07:21:27;;;;;;;15.25;9.10;;;;;;;19.55;100.00;101448.25;5058898;28;20112;-56
2023/07/14 07:23:52;;;;;;;15.25;8.63;;;;;;;19.20;100.00;101407.63;5058376;28;20041;-57
2023/07/14 07:26:18;;;;;;;13.75;9.05;;;;;;;19.43;100.00;101452.53;5058162;28;20514;-57
2023/07/14 07:28:43;;;;;;;15.52;8.35;;;;;;;19.68;100.00;101438.53;5058631;28;20079;-56
2023/07/14 07:31:11;;;;;;;13.82;8.55;;;;;;;19.88;100.00;101432.84;5058637;28;20029;-57
2023/07/14 07:33:40;;;;;;;15.63;8.95;;;;;;;20.02;100.00;101450.72;5058420;28;20057;-57
2023/07/14 07:36:14;;;;;;;12.30;8.35;;;;;;;19.97;100.00;101452.78;5040733;28;20502;-56
2023/07/14 07:38:45;;;;;;;12.50;7.65;;;;;;;19.65;100.00;101378.16;5041776;28;20469;-59
2023/07/14 07:41:11;;;;;;;13.40;8.20;;;;;;;20.36;100.00;101438.78;5040589;28;20396;-57
2023/07/14 07:43:37;;;;;;;13.82;7.13;;;;;;;20.54;100.00;101429.59;5058388;28;20044;-57
2023/07/14 07:46:03;;;;;;;11.57;7.40;;;;;;;20.61;100.00;101409.50;5058625;28;20037;-54
2023/07/14 07:48:28;;;;;;;14.48;7.38;;;;;;;20.97;100.00;101376.78;5058011;28;20391;-57
2023/07/14 07:50:53;;;;;;;12.30;6.65;;;;;;;21.85;100.00;101433.19;5058359;28;20056;-58
2023/07/14 07:53:19;;;;;;;12.60;6.65;;;;;;;21.50;100.00;101333.84;5040719;28;20037;-55
2023/07/14 07:55:54;;;;;;;9.27;6.85;;;;;;;22.26;100.00;101436.53;5058357;28;20409;-57
2023/07/14 07:58:24;;;;;;;12.32;7.15;;;;;;;22.37;100.00;101465.25;5058255;28;20044;-58
2023/07/14 08:00:50;;;;;;;12.82;6.68;;;;;;;21.89;100.00;101401.72;5041408;28;20116;-58
2023/07/14 08:03:15;;;;;;;10.20;7.18;;;;;;;22.04;100.00;101456.91;5058243;28;20124;-55
2023/07/14 08:05:41;;;;;;;9.32;6.32;;;;;;;21.84;100.00;101402.84;5058254;28;20044;-58
2023/07/14 08:08:06;;;;;;;9.00;6.03;;;;;;;22.00;100.00;101456.28;5040286;28;20032;-58
2023/07/14 08:10:32;;;;;;;14.35;6.50;;;;;;;21.95;100.00;101457.59;5056926;28;20403;-57
2023/07/14 08:12:58;;;;;;;15.88;6.68;;;;;;;21.96;100.00;101445.88;5037138;28;20487;-58
2023/07/14 08:15:24;;;;;;;12.00;6.07;;;;;;;21.58;100.00;101377.03;5056799;28;20055;-57
2023/07/14 08:17:55;;;;;;;13.30;6.72;;;;;;;21.90;100.00;101452.53;5056561;28;20077;-57
2023/07/14 08:20:21;;;;;;;12.43;5.97;;;;;;;22.11;100.00;101447.47;5022236;28;20504;-57
2023/07/14 08:22:46;;;;;;;9.90;5.60;;;;;;;22.25;100.00;101450.03;5056394;28;20222;-58
2023/07/14 08:25:12;;;;;;;11.98;5.90;;;;;;;22.00;100.00;101391.94;5056652;28;20033;-58
2023/07/14 08:27:38;;;;;;;13.88;7.07;;;;;;;22.18;100.00;101412.06;5058146;28;20503;-57
2023/07/14 08:30:06;;;;;;;10.52;7.90;;;;;;;22.16;100.00;101400.59;5055503;28;20041;-58
2023/07/14 08:32:33;;;;;;;12.05;8.20;;;;;;;22.28;100.00;101397.03;5054993;28;20394;-55
2023/07/14 08:34:58;;;;;;;12.93;8.13;;;;;;;22.11;100.00;101405.44;5035302;28;20037;-56
2023/07/14 08:37:23;;;;;;;11.75;6.78;;;;;;;22.33;100.00;101451.19;5034424;28;20495;-59
2023/07/14 08:39:49;;;;;;;9.77;6.28;;;;;;;22.49;100.00;101459.00;5034651;28;20115;-56
2023/07/14 08:42:38;;;;;;;10.80;5.38;;;;;;;22.35;100.00;101435.00;5052130;28;20037;-58
2023/07/14 08:45:24;;;;;;;6.53;4.65;;;;;;;22.63;100.00;101461.53;5035071;28;20511;-56
2023/07/14 08:48:04;;;;;;;10.18;5.47;;;;;;;22.80;100.00;101463.88;5034790;28;20037;-56
2023/07/14 08:50:30;;;;;;;7.67;5.50;;;;;;;22.65;100.00;101400.59;5052416;28;20037;-55
2023/07/14 08:53:03;;;;;;;12.88;5.53;;;;;;;22.68;100.00;101443.31;5034576;28;20628;-57
2023/07/14 08:55:31;;;;;;;9.77;4.85;;;;;;;23.07;100.00;101452.06;5035464;28;20036;-57
2023/07/14 08:58:01;;;;;;;7.88;4.60;;;;;;;23.38;100.00;101459.56;5034362;28;20039;-58
2023/07/14 09:00:31;;;;;;;7.25;4.72;;;;;;;23.22;100.00;101406.13;5052019;28;20033;-55
2023/07/14 09:03:43;;;;;;;5.65;4.40;;;;;;;23.82;100.00;101464.19;5034081;28;20065;-57
2023/07/14 09:06:18;;;;;;;8.95;4.45;;;;;;;23.82;100.00;101418.50;5043866;28;20045;-57
2023/07/14 09:08:44;;;;;;;8.88;4.68;;;;;;;24.78;100.00;101444.78;5052029;28;20092;-52
2023/07/14 09:11:37;;;;;;;9.15;4.28;;;;;;;25.81;100.00;101470.25;5051859;28;20033;-55
2023/07/14 09:14:09;;;;;;;6.97;3.63;;;;;;;25.83;100.00;101471.00;5051728;28;20094;-58
2023/07/14 09:16:42;;;;;;;6.25;3.30;;;;;;;25.47;100.00;101466.84;5052206;28;20073;-58
2023/07/14 09:19:33;;;;;;;6.60;3.25;;;;;;;25.65;100.00;101457.25;5033978;28;20555;-55
2023/07/14 09:22:02;;;;;;;;;;;;;;;26.22;100.00;101462.13;5034340;28;20086;-55
2023/07/14 09:24:46;;;;;;;7.05;3.30;;;;;;;26.70;100.00;101408.31;5051626;28;19927;-57
2023/07/14 09:27:26;;;;;;;7.07;4.35;;;;;;;27.09;100.00;101412.78;5051326;28;20388;-55
2023/07/14 09:29:53;;;;;;;7.65;3.50;;;;;;;26.88;100.00;101465.22;5033607;28;20021;-56
2023/07/14 09:32:35;;;;;;;10.65;3.92;;;;;;;26.56;100.00;101454.59;5034230;28;20060;-57
2023/07/14 09:35:22;;;;;;;10.80;3.15;;;;;;;26.10;100.00;101447.84;5033751;28;20040;-58
2023/07/14 09:37:57;;;;;;;6.35;3.67;;;;;;;26.14;100.00;101459.22;5033973;28;20082;-58
2023/07/14 09:40:28;;;;;;;4.88;3.17;;;;;;;25.37;100.00;101395.84;5051129;28;20078;-53
2023/07/14 09:42:56;;;;;;;9.10;3.28;;;;;;;25.47;100.00;101456.94;5033378;28;20037;-57
2023/07/14 09:45:23;;;;;;;5.32;2.90;;;;;;;25.50;100.00;101454.00;5051615;28;20059;-56
2023/07/14 09:48:16;;;;;;;6.93;3.25;;;;;;;25.62;100.00;101452.13;5049955;28;20094;-58
2023/07/14 09:50:52;;;;;;;6.93;3.00;;;;;;;25.46;100.00;101404.00;5023990;28;20037;-58
2023/07/14 09:53:18;;;;;;;6.47;3.40;;;;;;;25.43;100.00;101431.22;5033528;28;20033;-57
2023/07/14 09:55:56;;;;;;;8.10;3.75;;;;;;;25.29;100.00;101438.75;5032452;28;20362;-56
2023/07/14 09:58:25;;;;;;;5.05;2.88;;;;;;;24.82;100.00;101437.34;5051371;28;20427;-56
2023/07/14 10:00:51;;;;;;;7.78;2.83;;;;;;;24.63;100.00;101419.13;5051665;28;20036;-54
2023/07/14 10:03:17;;;;;;;7.20;3.40;;;;;;;24.29;100.00;101404.00;5033192;28;20049;-53
2023/07/14 10:05:48;;;;;;;4.30;2.70;;;;;;;24.17;100.00;101405.00;5033548;28;20041;-57
2023/07/14 10:08:35;;;;;;;6.35;3.00;;;;;;;23.83;100.00;101407.63;5051344;28;20033;-58
2023/07/14 10:11:25;;;;;;;4.90;2.63;;;;;;;23.78;100.00;101408.97;5051240;28;20025;-56
2023/07/14 10:13:59;;;;;;;4.47;2.58;;;;;;;23.18;100.00;101355.44;5050912;28;20029;-56
2023/07/14 10:16:26;;;;;;;4.88;2.35;;;;;;;23.26;100.00;101358.41;5051245;28;20554;-53
2023/07/14 10:19:00;;;;;;;3.10;2.05;;;;;;;23.60;100.00;101400.53;5050712;28;20053;-56
2023/07/14 10:21:29;;;;;;;3.25;2.47;;;;;;;23.60;100.00;101411.28;5032950;28;20029;-58
2023/07/14 10:24:00;;;;;;;4.43;2.65;;;;;;;23.61;100.00;101409.44;5050448;28;20472;-53
2023/07/14 10:26:49;;;;;;;3.95;2.03;;;;;;;23.42;100.00;101383.13;5050746;28;20047;-58
2023/07/14 10:29:16;;;;;;;3.72;2.03;;;;;;;23.08;100.00;101330.28;5050787;28;20090;-57
2023/07/14 10:31:50;;;;;;;6.05;3.00;;;;;;;23.29;100.00;101380.50;5032587;28;20035;-58
2023/07/14 10:34:33;;;;;;;6.15;2.92;;;;;;;23.55;100.00;101399.19;5050504;28;20546;-59
2023/07/14 10:37:01;;;;;;;3.38;2.53;;;;;;;23.65;100.00;101381.34;5032658;28;20039;-51
2023/07/14 10:39:44;;;;;;;3.00;2.60;;;;;;;23.52;100.00;101392.22;5050293;28;20033;-51
2023/07/14 10:42:11;;;;;;;6.05;2.78;;;;;;;23.00;100.00;101346.94;5032561;28;20037;-56
2023/07/14 10:44:40;;;;;;;5.13;2.60;;;;;;;23.08;100.00;101366.03;5032519;28;20391;-56
2023/07/14 10:47:12;;;;;;;3.45;2.40;;;;;;;23.04;100.00;101316.22;5050107;28;20373;-51
2023/07/14 10:49:44;;;;;;;5.68;3.00;;;;;;;22.77;100.00;101297.72;5050542;28;20112;-55
2023/07/14 10:52:40;;;;;;;8.20;2.90;;;;;;;23.02;100.00;101358.47;5050306;28;20048;-57
2023/07/14 10:55:21;;;;;;;9.50;2.80;;;;;;;23.21;100.00;101355.19;4999465;28;20470;-52
2023/07/14 10:58:01;;;;;;;5.22;2.97;;;;;;;23.48;100.00;101343.22;5049972;28;20090;-52
2023/07/14 11:00:46;;;;;;;3.20;2.58;;;;;;;23.87;100.00;101349.97;5032314;28;20040;-59
2023/07/14 11:03:35;;;;;;;6.78;2.85;;;;;;;23.86;100.00;101286.41;5032723;28;20068;-50
2023/07/14 11:06:19;;;;;;;2.55;2.35;;;;;;;24.02;100.00;101286.03;5050207;28;20047;-54
2023/07/14 11:08:50;;;;;;;5.05;2.97;;;;;;;24.14;100.00;101278.84;5016170;28;20029;-52
2023/07/14 11:11:24;;;;;;;6.35;2.10;;;;;;;24.81;100.00;101353.00;5032778;28;20178;-56
2023/07/14 11:14:17;;;;;;;4.10;2.47;;;;;;;24.77;100.00;101351.53;5032317;28;20074;-56
2023/07/14 11:16:49;;;;;;;5.70;2.97;;;;;;;24.36;100.00;101284.16;5050059;28;20099;-59
2023/07/14 11:19:26;;;;;;;7.57;2.13;;;;;;;24.54;100.00;101349.91;5050123;28;20055;-52
2023/07/14 11:21:56;;;;;;;2.25;1.80;;;;;;;24.40;100.00;101267.59;5032444;28;20522;-59
2023/07/14 11:24:31;;;;;;;3.40;2.20;;;;;;;25.02;100.00;101269.53;5032484;28;20087;-51